createdAt,value
2022-09-23T00:03:02.787Z,18.5
2022-09-23T00:08:01.610Z,19.3
2022-09-23T00:13:02.795Z,19.0
2022-09-23T00:18:01.634Z,19.0
2022-09-23T00:23:01.797Z,17.2
2022-09-23T00:28:01.612Z,16.8
2022-09-23T00:33:01.654Z,15.8
2022-09-23T00:38:01.721Z,15.1
2022-09-23T00:43:01.634Z,14.9
2022-09-23T00:48:01.642Z,16.2
2022-09-23T00:53:01.735Z,16.8
2022-09-23T00:58:01.675Z,16.8
2022-09-23T01:03:01.655Z,17.2
2022-09-23T01:08:01.615Z,16.7
2022-09-23T01:35:07.859Z,9.0
2022-09-23T01:40:01.524Z,11.7
2022-09-23T01:45:09.367Z,13.0
2022-09-23T02:00:08.367Z,13.9
2022-09-23T02:05:01.520Z,13.5
2022-09-23T02:10:01.561Z,13.0
2022-09-23T02:15:04.135Z,12.9
2022-09-23T02:20:01.601Z,12.2
2022-09-23T02:25:01.586Z,12.0
2022-09-23T02:30:09.036Z,11.8
2022-09-23T02:35:01.522Z,11.5
2022-09-23T02:40:17.448Z,11.5
2022-09-23T02:45:01.867Z,12.0
2022-09-23T02:50:01.315Z,10.3
2022-09-23T02:55:01.600Z,11.4
2022-09-23T03:00:03.230Z,12.3
2022-09-23T03:05:06.865Z,12.0
2022-09-23T03:10:01.032Z,11.9
2022-09-23T03:15:16.786Z,13.8
2022-09-23T03:20:01.046Z,13.1
2022-09-23T03:30:02.881Z,12.7
2022-09-23T03:35:01.593Z,13.1
2022-09-23T03:45:04.336Z,12.7
2022-09-23T03:50:01.412Z,13.2
2022-09-23T03:55:01.570Z,13.9
2022-09-23T04:00:04.175Z,13.5
2022-09-23T04:10:01.540Z,13.9
2022-09-23T04:15:02.835Z,13.7
2022-09-23T04:20:01.515Z,12.7
2022-09-23T04:25:01.567Z,12.5
2022-09-23T04:30:02.701Z,12.5
2022-09-23T04:35:01.679Z,15.5
2022-09-23T04:40:01.626Z,16.8
2022-09-23T04:45:02.300Z,19.2
2022-09-23T04:50:01.603Z,21.2
2022-09-23T04:55:01.694Z,21.9
2022-09-23T05:00:02.686Z,19.2
2022-09-23T05:05:10.029Z,18.2
2022-09-23T05:10:01.628Z,16.9
2022-09-23T05:15:02.294Z,16.4
2022-09-23T05:20:02.325Z,17.4
2022-09-23T05:25:01.575Z,20.1
2022-09-23T05:30:01.994Z,21.8
2022-09-23T05:35:01.574Z,22.8
2022-09-23T05:40:02.109Z,23.1
2022-09-23T05:45:01.964Z,22.2
2022-09-23T05:50:01.542Z,20.8
2022-09-23T05:55:02.112Z,20.2
2022-09-23T06:00:02.886Z,21.8
2022-09-23T06:05:02.015Z,22.1
2022-09-23T06:10:02.115Z,23.2
2022-09-23T06:15:02.162Z,23.2
2022-09-23T06:20:02.308Z,22.9
2022-09-23T06:25:02.174Z,22.2
2022-09-23T06:30:01.973Z,21.8
2022-09-23T06:35:01.664Z,21.2
2022-09-23T06:45:02.314Z,21.4
2022-09-23T06:50:03.050Z,21.1
2022-09-23T06:55:01.972Z,21.8
2022-09-23T07:00:02.349Z,22.3
2022-09-23T07:05:01.860Z,22.3
2022-09-23T07:10:01.400Z,22.1
2022-09-23T07:15:02.271Z,21.7
2022-09-23T07:20:02.608Z,20.8
2022-09-23T07:25:01.090Z,19.6
2022-09-23T07:30:02.106Z,19.3
2022-09-23T07:35:02.016Z,18.7
2022-09-23T07:40:02.366Z,18.2
2022-09-23T07:45:02.204Z,18.4
2022-09-23T07:50:02.229Z,18.9
2022-09-23T07:55:03.107Z,18.6
2022-09-23T08:00:02.793Z,18.2
2022-09-23T08:05:02.112Z,18.4
2022-09-23T08:10:02.627Z,18.0
2022-09-23T08:15:01.957Z,17.8
2022-09-23T08:20:01.593Z,18.0
2022-09-23T08:25:01.594Z,17.8
2022-09-23T08:30:02.213Z,17.4
2022-09-23T08:35:01.672Z,16.3
2022-09-23T08:40:01.699Z,16.3
2022-09-23T08:45:04.285Z,15.5
2022-09-23T08:50:01.998Z,15.2
2022-09-23T08:55:01.716Z,15.0
2022-09-23T09:00:03.075Z,14.7
2022-09-23T09:05:06.604Z,14.2
2022-09-23T09:10:01.642Z,13.5
2022-09-23T09:15:17.211Z,12.9
2022-09-23T09:20:01.601Z,12.1
2022-09-23T09:25:01.586Z,11.4
2022-09-23T09:30:02.013Z,10.6
2022-09-23T09:35:01.513Z,10.7
2022-09-23T09:40:01.586Z,10.7
2022-09-23T09:45:05.065Z,10.1
2022-09-23T09:50:07.169Z,9.7
2022-09-23T09:55:01.470Z,8.9
2022-09-23T10:00:16.980Z,7.0
2022-09-23T10:05:01.436Z,5.9
2022-09-23T10:15:02.232Z,4.6
2022-09-23T10:20:01.638Z,4.0
2022-09-23T10:25:01.489Z,4.6
2022-09-23T10:30:03.782Z,4.0
2022-09-23T10:35:01.547Z,3.5
2022-09-23T10:40:13.032Z,3.2
2022-09-23T10:45:16.421Z,3.2
2022-09-23T10:50:07.564Z,2.6
2022-09-23T11:00:12.312Z,3.0
2022-09-23T11:05:01.686Z,3.0
2022-09-23T11:15:14.865Z,2.9
2022-09-23T11:25:01.679Z,2.7
2022-09-23T11:30:06.718Z,2.7
2022-09-23T11:35:17.217Z,2.9
2022-09-23T11:40:01.604Z,3.1
2022-09-23T11:45:07.919Z,3.3
2022-09-23T11:50:01.610Z,3.1
2022-09-23T11:55:14.719Z,3.3
2022-09-23T12:00:04.215Z,3.1
2022-09-23T12:05:08.575Z,3.3
2022-09-23T12:10:01.480Z,3.2
2022-09-23T12:15:06.441Z,3.6
2022-09-23T12:25:01.670Z,3.9
2022-09-23T12:30:04.456Z,3.5
2022-09-23T12:35:01.484Z,3.4
2022-09-23T12:40:01.512Z,3.2
2022-09-23T12:45:17.293Z,3.0
2022-09-23T12:50:01.596Z,2.2
2022-09-23T12:55:01.551Z,2.6
2022-09-23T13:00:17.139Z,2.6
2022-09-23T13:10:01.627Z,2.5
2022-09-23T13:15:03.795Z,3.2
2022-09-23T13:30:16.420Z,3.2
2022-09-23T13:35:01.589Z,3.3
2022-09-23T13:40:01.467Z,3.2
2022-09-23T13:45:02.277Z,3.4
2022-09-23T13:50:01.699Z,3.6
2022-09-23T13:55:01.643Z,3.7
2022-09-23T14:00:17.699Z,3.7
2022-09-23T14:05:01.618Z,4.0
2022-09-23T14:10:01.733Z,3.7
2022-09-23T14:15:02.230Z,3.7
2022-09-23T14:20:01.601Z,3.6
2022-09-23T14:30:03.351Z,3.6
2022-09-23T14:35:01.688Z,3.9
2022-09-23T14:40:04.516Z,4.2
2022-09-23T14:45:04.293Z,4.4
2022-09-23T14:50:01.513Z,4.8
2022-09-23T14:55:01.736Z,5.0
2022-09-23T15:00:12.922Z,4.9
2022-09-23T15:05:01.261Z,4.7
2022-09-23T15:15:01.579Z,4.5
2022-09-23T15:20:04.120Z,4.0
2022-09-23T15:25:01.637Z,4.0
2022-09-23T15:30:15.393Z,3.8
2022-09-23T15:35:01.729Z,4.2
2022-09-23T15:40:01.682Z,4.4
2022-09-23T15:45:02.175Z,4.5
2022-09-23T15:50:01.728Z,4.3
2022-09-23T15:55:01.709Z,4.8
2022-09-23T16:00:02.377Z,4.6
2022-09-23T16:05:02.159Z,4.8
2022-09-23T16:11:01.729Z,5.0
2022-09-23T16:16:02.585Z,5.1
2022-09-23T16:21:02.109Z,5.4
2022-09-23T16:26:03.920Z,6.4
2022-09-23T16:31:01.692Z,7.2
2022-09-23T16:36:01.652Z,8.1
2022-09-23T16:41:01.936Z,10.1
2022-09-23T16:46:01.840Z,10.7
2022-09-23T16:51:03.289Z,10.8
2022-09-23T17:01:01.776Z,11.8
2022-09-23T17:06:08.339Z,11.8
2022-09-23T17:11:02.158Z,12.6
2022-09-23T17:16:02.429Z,13.8
2022-09-23T17:21:03.733Z,18.3
2022-09-23T17:26:02.122Z,19.4
2022-09-23T17:31:03.103Z,20.4
2022-09-23T17:36:06.756Z,22.3
2022-09-23T17:41:02.176Z,25.7
2022-09-23T17:46:04.475Z,25.8
2022-09-23T17:51:01.630Z,26.9
2022-09-23T17:56:01.618Z,29.9
2022-09-23T18:01:01.834Z,30.9
2022-09-23T18:06:06.962Z,30.2
2022-09-23T18:11:01.936Z,29.5
2022-09-23T18:16:01.792Z,30.4
2022-09-23T18:21:01.715Z,29.6
2022-09-23T18:26:01.652Z,31.1
2022-09-23T18:31:01.631Z,31.6
2022-09-23T18:36:07.343Z,31.1
2022-09-23T18:41:01.786Z,31.2
2022-09-23T18:46:01.787Z,31.3
2022-09-23T18:51:01.812Z,32.0
2022-09-23T18:56:06.511Z,33.1
2022-09-23T19:01:01.946Z,35.0
2022-09-23T19:06:01.657Z,35.6
2022-09-23T19:11:01.639Z,36.2
2022-09-23T19:16:01.868Z,34.4
2022-09-23T19:21:07.229Z,33.3
2022-09-23T19:26:01.612Z,32.3
2022-09-23T19:31:01.627Z,32.1
2022-09-23T19:36:01.721Z,32.0
2022-09-23T19:46:01.653Z,31.4
2022-09-23T19:51:01.645Z,31.3
2022-09-23T19:56:01.693Z,31.3
2022-09-23T20:01:01.597Z,31.2
2022-09-23T20:06:01.519Z,31.6
2022-09-23T20:11:01.421Z,31.8
2022-09-23T20:16:02.589Z,31.2
2022-09-23T20:21:01.346Z,30.8
2022-09-23T20:26:01.346Z,30.8
2022-09-23T20:31:01.580Z,30.9
2022-09-23T20:36:01.653Z,31.2
2022-09-23T20:41:01.682Z,31.9
2022-09-23T20:46:02.805Z,32.8
2022-09-23T20:51:01.683Z,32.8
2022-09-23T20:56:01.717Z,32.3
2022-09-23T21:01:01.912Z,33.0
2022-09-23T21:06:01.723Z,33.3
2022-09-23T21:11:01.659Z,32.5
2022-09-23T21:16:01.587Z,32.4
2022-09-23T21:21:02.639Z,32.5
2022-09-23T21:26:01.648Z,32.0
2022-09-23T21:31:01.812Z,31.9
2022-09-23T21:36:01.645Z,32.7
2022-09-23T21:51:01.674Z,32.6
2022-09-23T21:56:06.645Z,31.9
2022-09-23T22:01:01.908Z,29.6
2022-09-23T22:06:01.770Z,29.2
2022-09-23T22:11:01.665Z,27.6
2022-09-23T22:16:01.782Z,25.4
2022-09-23T22:21:01.758Z,25.2
2022-09-23T22:26:03.792Z,26.4
2022-09-23T22:31:01.763Z,26.6
2022-09-23T22:36:01.723Z,27.3
2022-09-23T22:41:01.889Z,28.8
2022-09-23T22:46:01.511Z,28.7
2022-09-23T22:51:01.533Z,28.4
2022-09-23T22:56:01.412Z,27.2
2022-09-23T23:01:01.349Z,26.8
2022-09-23T23:06:01.420Z,25.8
2022-09-23T23:11:01.290Z,24.0
2022-09-23T23:16:01.437Z,23.3
2022-09-23T23:21:01.738Z,23.0
2022-09-23T23:26:04.422Z,22.0
2022-09-23T23:31:01.286Z,22.8
2022-09-23T23:36:01.710Z,23.4
2022-09-23T23:41:01.652Z,22.7
2022-09-23T23:51:01.583Z,23.2
2022-09-23T23:56:01.782Z,23.4
